createdAt,value
2018-12-15T00:00:21.068Z,93.10
2018-12-15T00:02:51.096Z,92.70
2018-12-15T00:05:21.143Z,93.00
2018-12-15T00:07:49.172Z,92.90
2018-12-15T00:10:17.211Z,92.80
2018-12-15T00:12:45.217Z,92.70
2018-12-15T00:15:13.208Z,92.80
2018-12-15T00:17:41.172Z,92.60
2018-12-15T00:20:09.466Z,92.80
2018-12-15T00:22:37.559Z,92.50
2018-12-15T00:25:05.612Z,92.60
2018-12-15T00:27:33.648Z,92.60
2018-12-15T00:30:01.672Z,92.80
2018-12-15T00:32:29.667Z,92.90
2018-12-15T00:34:57.685Z,92.80
2018-12-15T00:37:25.669Z,92.80
2018-12-15T00:39:55.711Z,93.00
2018-12-15T00:42:33.391Z,93.40
2018-12-15T00:45:01.364Z,92.60
2018-12-15T00:47:29.390Z,92.70
2018-12-15T00:49:57.401Z,93.10
2018-12-15T00:52:25.371Z,92.70
2018-12-15T00:55:10.277Z,92.70
2018-12-15T00:57:38.249Z,92.80
2018-12-15T01:00:06.651Z,92.60
2018-12-15T01:02:35.706Z,92.50
2018-12-15T01:05:05.529Z,92.70
2018-12-15T01:07:33.510Z,92.50
2018-12-15T01:10:01.521Z,92.90
2018-12-15T01:12:29.553Z,92.40
2018-12-15T01:14:57.849Z,92.60
2018-12-15T01:17:25.905Z,92.40
2018-12-15T01:19:53.884Z,92.50
2018-12-15T01:22:21.876Z,92.90
2018-12-15T01:24:49.889Z,92.60
2018-12-15T01:27:18.013Z,92.50
2018-12-15T01:29:45.982Z,92.60
2018-12-15T01:32:13.984Z,92.50
2018-12-15T01:34:41.976Z,92.80
2018-12-15T01:37:09.923Z,92.90
2018-12-15T01:39:38.691Z,92.70
2018-12-15T01:42:06.710Z,92.50
2018-12-15T01:44:34.717Z,92.50
2018-12-15T01:47:02.717Z,92.40
2018-12-15T01:49:30.675Z,92.60
2018-12-15T01:51:58.656Z,92.60
2018-12-15T01:54:26.674Z,92.50
2018-12-15T01:56:54.707Z,92.60
2018-12-15T01:59:22.690Z,92.50
2018-12-15T02:01:50.681Z,92.60
2018-12-15T02:04:18.646Z,92.70
2018-12-15T02:06:46.646Z,92.80
2018-12-15T02:09:15.049Z,92.70
2018-12-15T02:11:44.848Z,92.40
2018-12-15T02:14:12.844Z,92.60
2018-12-15T02:16:40.872Z,92.40
2018-12-15T02:19:08.827Z,92.50
2018-12-15T02:21:36.801Z,92.60
2018-12-15T02:24:04.796Z,92.80
2018-12-15T02:26:32.762Z,92.70
2018-12-15T02:29:01.317Z,92.60
2018-12-15T02:31:29.327Z,92.90
2018-12-15T02:33:57.311Z,92.80
2018-12-15T02:36:25.280Z,92.60
2018-12-15T02:38:53.579Z,92.70
2018-12-15T02:41:21.568Z,92.90
2018-12-15T02:43:49.574Z,92.90
2018-12-15T02:46:17.540Z,93.10
2018-12-15T02:48:45.546Z,93.00
2018-12-15T02:51:13.487Z,92.90
2018-12-15T02:53:41.463Z,92.70
2018-12-15T02:56:09.417Z,92.80
2018-12-15T02:58:37.393Z,93.00
2018-12-15T03:01:05.415Z,92.90
2018-12-15T03:03:33.379Z,92.90
2018-12-15T03:06:01.377Z,93.00
2018-12-15T03:08:29.410Z,93.00
2018-12-15T03:10:57.370Z,93.40
2018-12-15T03:13:25.346Z,93.00
2018-12-15T03:15:53.357Z,93.10
2018-12-15T03:18:21.328Z,93.30
2018-12-15T03:20:59.745Z,93.60
2018-12-15T03:23:27.841Z,93.00
2018-12-15T03:25:56.004Z,93.30
2018-12-15T03:28:24.283Z,93.50
2018-12-15T03:30:52.242Z,93.70
2018-12-15T03:33:20.214Z,93.50
2018-12-15T03:35:48.224Z,93.60
2018-12-15T03:38:16.211Z,93.30
2018-12-15T03:40:44.198Z,93.70
2018-12-15T03:43:12.217Z,93.80
2018-12-15T03:45:40.736Z,93.90
2018-12-15T03:48:08.742Z,94.10
2018-12-15T03:50:36.732Z,93.90
2018-12-15T03:53:04.787Z,94.00
2018-12-15T03:55:32.749Z,94.20
2018-12-15T03:58:00.766Z,94.30
2018-12-15T04:00:28.783Z,94.20
2018-12-15T04:02:56.766Z,94.40
2018-12-15T04:05:24.777Z,94.40
2018-12-15T04:07:52.742Z,95.20
2018-12-15T04:10:20.725Z,94.90
2018-12-15T04:12:48.702Z,95.10
2018-12-15T04:15:16.673Z,95.10
2018-12-15T04:17:44.644Z,94.90
2018-12-15T04:20:12.609Z,94.90
2018-12-15T04:22:40.615Z,94.70
2018-12-15T04:25:08.636Z,94.90
2018-12-15T04:27:36.659Z,94.90
2018-12-15T04:30:07.950Z,95.60
2018-12-15T04:32:36.599Z,95.90
2018-12-15T04:35:04.887Z,96.00
2018-12-15T04:37:32.882Z,96.70
2018-12-15T04:40:00.928Z,96.30
2018-12-15T04:42:28.925Z,96.50
2018-12-15T04:44:56.929Z,96.60
2018-12-15T04:47:24.928Z,96.80
2018-12-15T04:49:52.881Z,97.00
2018-12-15T04:52:20.882Z,97.10
2018-12-15T04:54:48.876Z,97.10
2018-12-15T04:57:16.886Z,97.60
2018-12-15T04:59:44.964Z,97.30
2018-12-15T05:02:12.974Z,97.30
2018-12-15T05:04:40.926Z,97.30
2018-12-15T05:07:08.886Z,97.30
2018-12-15T05:09:36.884Z,97.40
2018-12-15T05:12:04.846Z,97.20
2018-12-15T05:14:32.815Z,97.40
2018-12-15T05:17:00.822Z,97.30
2018-12-15T05:19:28.802Z,97.60
2018-12-15T05:21:56.977Z,97.60
2018-12-15T05:24:24.942Z,97.90
2018-12-15T05:26:52.912Z,97.60
2018-12-15T05:29:20.926Z,98.10
2018-12-15T05:31:48.938Z,98.30
2018-12-15T05:34:16.903Z,98.40
2018-12-15T05:36:44.877Z,98.30
2018-12-15T05:39:12.882Z,98.10
2018-12-15T05:41:40.860Z,98.00
2018-12-15T05:44:08.907Z,98.10
2018-12-15T05:46:37.048Z,98.50
2018-12-15T05:49:05.025Z,98.50
2018-12-15T05:51:32.998Z,98.30
2018-12-15T05:54:01.025Z,98.40
2018-12-15T05:56:28.994Z,98.40
2018-12-15T05:58:57.076Z,98.60
2018-12-15T06:01:25.192Z,98.50
2018-12-15T06:03:53.160Z,98.40
2018-12-15T06:06:21.144Z,98.50
2018-12-15T06:08:49.122Z,98.60
2018-12-15T06:11:17.106Z,98.40
2018-12-15T06:13:45.101Z,98.40
2018-12-15T06:16:13.074Z,98.80
2018-12-15T06:18:41.038Z,98.80
2018-12-15T06:21:09.003Z,98.80
2018-12-15T06:23:37.012Z,98.70
2018-12-15T06:26:04.969Z,98.80
2018-12-15T06:28:32.961Z,98.90
2018-12-15T06:31:00.967Z,98.80
2018-12-15T06:33:29.009Z,98.80
2018-12-15T06:36:07.704Z,98.80
2018-12-15T06:38:45.350Z,98.90
2018-12-15T06:41:22.213Z,99.00
2018-12-15T06:43:59.429Z,99.10
2018-12-15T06:46:39.494Z,98.80
2018-12-15T06:49:15.598Z,99.00
2018-12-15T06:51:53.559Z,99.30
2018-12-15T06:54:32.805Z,99.20
2018-12-15T06:57:12.505Z,99.20
2018-12-15T06:59:41.884Z,99.20
2018-12-15T07:02:09.890Z,99.60
2018-12-15T07:04:38.595Z,99.20
2018-12-15T07:07:06.982Z,99.40
2018-12-15T07:09:34.952Z,99.50
2018-12-15T07:12:03.025Z,99.40
2018-12-15T07:14:31.050Z,99.40
2018-12-15T07:16:59.545Z,99.60
2018-12-15T07:19:28.052Z,99.70
2018-12-15T07:21:56.030Z,99.80
2018-12-15T07:24:24.084Z,99.80
2018-12-15T07:26:52.649Z,99.70
2018-12-15T07:29:20.643Z,99.70
2018-12-15T07:31:48.653Z,99.90
2018-12-15T07:34:23.125Z,99.90
2018-12-15T07:37:01.522Z,99.80
2018-12-15T07:39:37.755Z,99.90
2018-12-15T07:42:17.781Z,99.90
2018-12-15T07:44:57.419Z,99.90
2018-12-15T07:47:40.698Z,99.90
2018-12-15T07:50:20.201Z,99.90
2018-12-15T07:52:54.610Z,99.90
2018-12-15T07:55:32.020Z,99.90
2018-12-15T07:58:01.002Z,99.90
2018-12-15T08:00:28.991Z,99.90
2018-12-15T08:02:57.084Z,99.90
2018-12-15T08:05:25.051Z,99.90
2018-12-15T08:07:53.397Z,99.90
2018-12-15T08:10:23.827Z,99.90
2018-12-15T08:12:59.571Z,99.90
2018-12-15T08:15:28.849Z,99.90
2018-12-15T08:17:56.916Z,99.90
2018-12-15T08:20:24.937Z,99.90
2018-12-15T08:22:53.051Z,99.90
2018-12-15T08:25:21.091Z,99.90
2018-12-15T08:27:49.080Z,99.90
2018-12-15T08:30:17.070Z,99.90
2018-12-15T08:32:46.947Z,99.90
2018-12-15T08:35:26.554Z,99.90
2018-12-15T08:38:04.378Z,99.90
2018-12-15T08:40:43.319Z,99.90
2018-12-15T08:43:21.457Z,99.90
2018-12-15T08:46:01.107Z,99.90
2018-12-15T08:48:39.507Z,99.90
2018-12-15T08:51:15.733Z,99.90
2018-12-15T08:53:53.343Z,99.90
2018-12-15T08:56:33.407Z,99.90
2018-12-15T08:59:02.752Z,99.90
2018-12-15T09:01:30.724Z,99.90
2018-12-15T09:03:58.736Z,99.90
2018-12-15T09:06:26.766Z,99.90
2018-12-15T09:08:55.393Z,99.90
2018-12-15T09:11:24.052Z,99.90
2018-12-15T09:13:52.048Z,99.90
2018-12-15T09:16:26.218Z,99.90
2018-12-15T09:18:50.789Z,99.90
2018-12-15T09:21:19.615Z,99.90
2018-12-15T09:23:48.104Z,99.90
2018-12-15T09:26:16.827Z,99.90
2018-12-15T09:28:45.442Z,99.90
2018-12-15T09:31:14.160Z,99.90
2018-12-15T09:33:42.659Z,99.90
2018-12-15T09:36:21.973Z,99.90
2018-12-15T09:39:00.022Z,99.90
2018-12-15T09:41:39.793Z,99.90
2018-12-15T09:44:17.652Z,99.90
2018-12-15T09:47:00.440Z,99.90
2018-12-15T09:49:40.839Z,99.90
2018-12-15T09:52:18.523Z,99.90
2018-12-15T09:54:58.633Z,99.90
2018-12-15T09:57:33.964Z,99.90
2018-12-15T10:00:02.859Z,99.90
2018-12-15T10:02:32.599Z,99.90
2018-12-15T10:05:01.480Z,99.90
2018-12-15T10:07:30.716Z,99.90
2018-12-15T10:10:00.045Z,99.90
2018-12-15T10:12:29.395Z,99.90
2018-12-15T10:14:58.247Z,99.90
2018-12-15T10:17:26.950Z,99.90
2018-12-15T10:19:55.943Z,99.90
2018-12-15T10:22:24.752Z,99.90
2018-12-15T10:24:53.414Z,99.90
2018-12-15T10:27:22.158Z,99.90
2018-12-15T10:29:56.449Z,99.90
2018-12-15T10:32:30.652Z,99.90
2018-12-15T10:34:59.281Z,99.90
2018-12-15T10:37:28.163Z,99.90
2018-12-15T10:39:57.004Z,99.90
2018-12-15T10:42:27.148Z,99.90
2018-12-15T10:44:55.879Z,99.90
2018-12-15T10:47:24.432Z,99.90
2018-12-15T10:49:55.152Z,99.90
2018-12-15T10:52:25.717Z,99.90
2018-12-15T10:54:53.852Z,99.90
2018-12-15T10:57:23.209Z,99.90
2018-12-15T10:59:51.539Z,99.90
2018-12-15T11:02:20.563Z,99.90
2018-12-15T11:04:49.634Z,99.90
2018-12-15T11:07:17.934Z,99.90
2018-12-15T11:09:46.141Z,99.90
2018-12-15T11:12:14.574Z,99.90
2018-12-15T11:14:42.796Z,99.90
2018-12-15T11:17:11.428Z,99.90
2018-12-15T11:19:39.823Z,99.90
2018-12-15T11:22:08.505Z,99.90
2018-12-15T11:24:37.260Z,99.90
2018-12-15T11:27:05.937Z,99.90
2018-12-15T11:29:34.593Z,99.90
2018-12-15T11:32:03.692Z,99.90
2018-12-15T11:34:32.462Z,99.90
2018-12-15T11:37:01.552Z,99.90
2018-12-15T11:39:30.108Z,99.90
2018-12-15T11:41:58.746Z,99.90
2018-12-15T11:44:28.291Z,99.90
2018-12-15T11:46:56.605Z,99.90
2018-12-15T11:49:25.984Z,99.90
2018-12-15T11:51:54.747Z,99.90
2018-12-15T11:54:23.377Z,99.90
2018-12-15T11:56:52.773Z,99.90
2018-12-15T11:59:21.409Z,99.90
2018-12-15T12:01:50.672Z,99.90
2018-12-15T12:04:20.041Z,99.90
2018-12-15T12:06:49.601Z,99.90
2018-12-15T12:09:18.189Z,99.90
2018-12-15T12:11:46.944Z,99.90
2018-12-15T12:14:15.570Z,99.90
2018-12-15T12:16:44.313Z,99.90
2018-12-15T12:19:13.606Z,99.90
2018-12-15T12:21:42.257Z,99.90
2018-12-15T12:24:10.975Z,99.90
2018-12-15T12:26:41.797Z,99.90
2018-12-15T12:29:10.654Z,99.90
2018-12-15T12:31:39.348Z,99.90
2018-12-15T12:34:08.109Z,99.90
2018-12-15T12:36:36.846Z,99.90
2018-12-15T12:39:06.996Z,99.90
2018-12-15T12:41:38.030Z,99.90
2018-12-15T12:44:07.587Z,99.90
2018-12-15T12:46:36.786Z,99.90
2018-12-15T12:49:06.253Z,99.90
2018-12-15T12:51:35.006Z,99.90
2018-12-15T12:54:03.819Z,99.90
2018-12-15T12:56:32.650Z,99.90
2018-12-15T12:59:01.429Z,99.90
2018-12-15T13:01:30.149Z,99.90
2018-12-15T13:03:58.957Z,99.90
2018-12-15T13:06:28.343Z,99.90
2018-12-15T13:08:58.127Z,99.90
2018-12-15T13:11:26.957Z,99.90
2018-12-15T13:13:55.739Z,99.90
2018-12-15T13:16:24.506Z,99.90
2018-12-15T13:18:53.280Z,99.90
2018-12-15T13:21:22.052Z,99.90
2018-12-15T13:23:51.936Z,99.90
2018-12-15T13:26:20.793Z,99.90
2018-12-15T13:28:49.621Z,99.90
2018-12-15T13:31:18.470Z,99.90
2018-12-15T13:33:47.466Z,99.90
2018-12-15T13:36:18.763Z,99.90
2018-12-15T13:38:47.602Z,99.90
2018-12-15T13:41:17.606Z,99.90
2018-12-15T13:43:46.422Z,99.90
2018-12-15T13:46:15.952Z,99.90
2018-12-15T13:48:45.759Z,99.90
2018-12-15T13:51:23.240Z,99.90
2018-12-15T13:54:01.829Z,99.90
2018-12-15T13:56:39.227Z,99.90
2018-12-15T13:59:15.176Z,99.90
2018-12-15T14:01:45.372Z,99.90
2018-12-15T14:04:23.233Z,99.90
2018-12-15T14:06:58.849Z,99.90
2018-12-15T14:09:38.106Z,99.90
2018-12-15T14:12:15.045Z,99.90
2018-12-15T14:14:46.328Z,99.90
2018-12-15T14:17:15.189Z,99.90
2018-12-15T14:19:44.861Z,99.90
2018-12-15T14:22:15.005Z,99.90
2018-12-15T14:24:44.340Z,99.90
2018-12-15T14:27:13.824Z,99.90
2018-12-15T14:29:43.248Z,99.90
2018-12-15T14:32:12.790Z,99.90
2018-12-15T14:34:42.308Z,99.90
2018-12-15T14:37:11.595Z,99.90
2018-12-15T14:39:41.054Z,99.90
2018-12-15T14:42:10.636Z,99.90
2018-12-15T14:44:41.061Z,99.90
2018-12-15T14:47:17.971Z,99.90
2018-12-15T14:49:53.960Z,99.90
2018-12-15T14:52:35.459Z,99.90
2018-12-15T14:55:14.920Z,99.90
2018-12-15T14:57:52.722Z,99.90
2018-12-15T15:00:32.032Z,99.90
2018-12-15T15:03:14.068Z,99.90
2018-12-15T15:05:50.330Z,99.90
2018-12-15T15:08:27.299Z,99.90
2018-12-15T15:11:05.532Z,99.90
2018-12-15T15:13:47.459Z,99.90
2018-12-15T15:16:18.649Z,99.90
2018-12-15T15:18:48.158Z,99.90
2018-12-15T15:21:18.095Z,99.90
2018-12-15T15:23:47.550Z,99.90
2018-12-15T15:26:16.293Z,99.90
2018-12-15T15:29:48.545Z,99.90
2018-12-15T15:32:19.590Z,99.90
2018-12-15T15:34:48.381Z,99.90
2018-12-15T15:37:21.179Z,99.90
2018-12-15T15:39:50.001Z,99.90
2018-12-15T15:42:20.164Z,99.90
2018-12-15T15:44:48.913Z,99.90
2018-12-15T15:47:19.219Z,99.90
2018-12-15T15:49:47.932Z,99.90
2018-12-15T15:52:16.704Z,99.90
2018-12-15T15:54:45.479Z,99.90
2018-12-15T15:57:14.918Z,99.90
2018-12-15T15:59:43.908Z,99.90
2018-12-15T16:02:12.755Z,99.90
2018-12-15T16:04:42.738Z,99.90
2018-12-15T16:07:20.647Z,99.90
2018-12-15T16:09:59.383Z,99.90
2018-12-15T16:12:32.308Z,99.90
2018-12-15T16:15:09.195Z,99.90
2018-12-15T16:17:46.368Z,99.90
2018-12-15T16:20:27.103Z,99.90
2018-12-15T16:23:11.055Z,99.90
2018-12-15T16:25:47.926Z,99.90
2018-12-15T16:28:27.258Z,99.90
2018-12-15T16:30:57.381Z,99.90
2018-12-15T16:33:27.423Z,99.90
2018-12-15T16:35:57.255Z,99.90
2018-12-15T16:38:26.705Z,99.90
2018-12-15T16:40:57.498Z,99.90
2018-12-15T16:43:27.025Z,99.90
2018-12-15T16:45:56.620Z,99.90
2018-12-15T16:48:26.064Z,99.90
2018-12-15T16:50:56.951Z,99.90
2018-12-15T16:53:28.128Z,99.90
2018-12-15T16:55:56.986Z,99.90
2018-12-15T16:58:26.476Z,99.90
2018-12-15T17:00:56.183Z,99.90
2018-12-15T17:03:30.482Z,99.90
2018-12-15T17:05:57.096Z,99.90
2018-12-15T17:08:27.051Z,99.90
2018-12-15T17:10:58.110Z,99.90
2018-12-15T17:13:29.026Z,99.90
2018-12-15T17:15:58.737Z,99.90
2018-12-15T17:18:28.500Z,99.90
2018-12-15T17:20:58.266Z,99.90
2018-12-15T17:23:28.200Z,99.90
2018-12-15T17:25:58.860Z,99.90
2018-12-15T17:28:28.793Z,99.90
2018-12-15T17:30:58.793Z,99.90
2018-12-15T17:33:29.564Z,99.90
2018-12-15T17:35:59.111Z,99.90
2018-12-15T17:38:28.958Z,99.90
2018-12-15T17:40:58.770Z,99.90
2018-12-15T17:43:29.321Z,99.90
2018-12-15T17:45:59.013Z,99.90
2018-12-15T17:48:28.925Z,99.90
2018-12-15T17:51:03.236Z,99.90
2018-12-15T17:53:28.650Z,99.90
2018-12-15T17:55:58.442Z,99.90
2018-12-15T17:58:29.423Z,99.90
2018-12-15T18:01:00.328Z,99.90
2018-12-15T18:03:31.344Z,99.90
2018-12-15T18:06:02.759Z,99.90
2018-12-15T18:08:32.547Z,99.90
2018-12-15T18:11:02.016Z,99.90
2018-12-15T18:13:31.984Z,99.90
2018-12-15T18:16:01.779Z,99.90
2018-12-15T18:18:31.336Z,99.90
2018-12-15T18:21:01.501Z,99.90
2018-12-15T18:23:33.747Z,99.90
2018-12-15T18:26:04.190Z,99.90
2018-12-15T18:28:34.648Z,99.90
2018-12-15T18:31:05.037Z,99.90
2018-12-15T18:33:37.121Z,99.90
2018-12-15T18:36:09.435Z,99.90
2018-12-15T18:38:40.066Z,99.90
2018-12-15T18:41:10.031Z,99.90
2018-12-15T18:43:40.137Z,99.90
2018-12-15T18:46:10.205Z,99.90
2018-12-15T18:48:39.724Z,99.90
2018-12-15T18:51:16.343Z,99.90
2018-12-15T18:53:44.498Z,99.90
2018-12-15T18:56:14.146Z,99.90
2018-12-15T18:58:44.830Z,99.90
2018-12-15T19:01:16.063Z,99.90
2018-12-15T19:03:45.948Z,99.90
2018-12-15T19:06:15.541Z,99.90
2018-12-15T19:08:45.447Z,99.90
2018-12-15T19:11:16.893Z,99.90
2018-12-15T19:13:46.476Z,99.90
2018-12-15T19:16:16.313Z,99.90
2018-12-15T19:18:46.120Z,99.90
2018-12-15T19:21:22.912Z,99.90
2018-12-15T19:23:50.053Z,99.90
2018-12-15T19:26:20.152Z,99.90
2018-12-15T19:28:50.668Z,99.90
2018-12-15T19:31:20.184Z,99.90
2018-12-15T19:33:50.748Z,99.90
2018-12-15T19:36:20.678Z,99.90
2018-12-15T19:38:50.515Z,99.90
2018-12-15T19:41:20.654Z,99.90
2018-12-15T19:43:51.019Z,99.90
2018-12-15T19:46:21.278Z,99.90
2018-12-15T19:48:51.285Z,99.90
2018-12-15T19:51:21.050Z,99.90
2018-12-15T19:53:51.392Z,99.90
2018-12-15T19:56:20.178Z,99.90
2018-12-15T19:58:49.041Z,99.90
2018-12-15T20:01:18.712Z,99.90
2018-12-15T20:03:47.926Z,99.90
2018-12-15T20:06:16.877Z,99.90
2018-12-15T20:08:46.693Z,99.90
2018-12-15T20:11:16.709Z,99.90
2018-12-15T20:13:46.272Z,99.90
2018-12-15T20:16:15.745Z,99.90
2018-12-15T20:18:45.544Z,99.90
2018-12-15T20:21:14.952Z,99.90
2018-12-15T20:23:43.789Z,99.90
2018-12-15T20:26:12.803Z,99.90
2018-12-15T20:28:41.634Z,99.90
2018-12-15T20:31:11.456Z,99.90
2018-12-15T20:33:44.362Z,99.90
2018-12-15T20:36:14.305Z,99.90
2018-12-15T20:38:43.870Z,99.90
2018-12-15T20:41:13.229Z,99.90
2018-12-15T20:43:42.905Z,99.90
2018-12-15T20:46:13.658Z,99.90
2018-12-15T20:48:43.517Z,99.90
2018-12-15T20:51:12.885Z,99.90
2018-12-15T20:53:43.009Z,99.90
2018-12-15T20:56:12.274Z,99.90
2018-12-15T20:58:41.740Z,99.90
2018-12-15T21:01:11.173Z,99.90
2018-12-15T21:03:40.877Z,99.90
2018-12-15T21:06:10.305Z,99.90
2018-12-15T21:08:40.481Z,99.90
2018-12-15T21:11:11.049Z,99.90
2018-12-15T21:13:42.014Z,99.90
2018-12-15T21:16:11.473Z,99.90
2018-12-15T21:18:40.945Z,99.90
2018-12-15T21:21:10.381Z,99.90
2018-12-15T21:23:40.397Z,99.90
2018-12-15T21:26:10.014Z,99.90
2018-12-15T21:28:39.792Z,99.90
2018-12-15T21:31:08.449Z,99.90
2018-12-15T21:33:37.231Z,99.90
2018-12-15T21:36:05.956Z,99.90
2018-12-15T21:38:35.783Z,99.90
2018-12-15T21:41:05.524Z,99.90
2018-12-15T21:43:35.121Z,99.90
2018-12-15T21:46:04.811Z,99.90
2018-12-15T21:48:36.499Z,99.90
2018-12-15T21:51:05.951Z,99.90
2018-12-15T21:53:35.125Z,99.90
2018-12-15T21:56:04.784Z,99.90
2018-12-15T21:58:33.857Z,99.90
2018-12-15T22:01:04.271Z,99.90
2018-12-15T22:03:33.252Z,99.90
2018-12-15T22:06:02.667Z,99.90
2018-12-15T22:08:31.963Z,99.90
2018-12-15T22:11:00.944Z,99.90
2018-12-15T22:13:30.177Z,99.90
2018-12-15T22:15:58.995Z,99.90
2018-12-15T22:18:28.193Z,99.90
2018-12-15T22:20:57.259Z,99.90
2018-12-15T22:23:26.064Z,99.90
2018-12-15T22:26:00.273Z,99.90
2018-12-15T22:28:28.951Z,99.90
2018-12-15T22:30:57.620Z,99.90
2018-12-15T22:33:26.341Z,99.90
2018-12-15T22:35:55.006Z,99.90
2018-12-15T22:38:23.717Z,99.90
2018-12-15T22:40:52.661Z,99.90
2018-12-15T22:43:21.369Z,99.90
2018-12-15T22:45:49.980Z,99.90
2018-12-15T22:48:18.662Z,99.90
2018-12-15T22:50:48.813Z,99.90
2018-12-15T22:53:17.446Z,99.90
2018-12-15T22:55:46.148Z,99.90
2018-12-15T22:58:14.642Z,99.90
2018-12-15T23:00:49.132Z,99.90
2018-12-15T23:03:19.768Z,99.90
2018-12-15T23:05:48.229Z,99.90
2018-12-15T23:08:17.826Z,99.90
2018-12-15T23:10:46.647Z,99.90
2018-12-15T23:13:15.328Z,99.90
2018-12-15T23:15:44.054Z,99.90
2018-12-15T23:18:12.690Z,99.90
2018-12-15T23:20:41.581Z,99.90
2018-12-15T23:23:10.289Z,99.90
2018-12-15T23:25:38.766Z,99.90
2018-12-15T23:28:07.437Z,99.90
2018-12-15T23:30:35.942Z,99.90
2018-12-15T23:33:04.875Z,99.90
2018-12-15T23:35:33.707Z,99.90
2018-12-15T23:38:02.430Z,99.90
2018-12-15T23:40:32.091Z,99.90
2018-12-15T23:43:00.810Z,99.90
2018-12-15T23:45:29.282Z,99.90
2018-12-15T23:47:57.719Z,99.90
2018-12-15T23:50:27.615Z,99.90
2018-12-15T23:52:56.580Z,99.90
2018-12-15T23:55:25.235Z,99.90
2018-12-15T23:57:53.733Z,99.90
